SEH9594 LGLM-LGMT
Flight info
| Callsign | SEH9594 |
|---|---|
| Flight time | 0h 25m |
| Altitude | 13000 |
| Route | NILVA DCT ERESO DCT BIFOK |
| Aircraft | A20N/M-SDE2E3FGHIJ1RWXY/LB1 |
Departure
| Time | 2026-04-25 09:01 |
|---|---|
| Airport | Limnos Airport (LGLM) |
Arrival
| Time | 2026-04-25 09:26 |
|---|---|
| Airport | Mytilene International Airport (LGMT) |
| Time | Latitude | Longitude | Altitude | Speed | Heading |
|---|---|---|---|---|---|
| 2026-04-25 08:42 | 39.92312 | 25.23597 | 21 ft | 0 kts | 221° |
| 2026-04-25 08:55 | 39.92287 | 25.23577 | 21 ft | 9 kts | 200° |
| 2026-04-25 08:55 | 39.92212 | 25.23569 | 21 ft | 13 kts | 217° |
| 2026-04-25 08:55 | 39.92126 | 25.23519 | 22 ft | 15 kts | 164° |
| 2026-04-25 08:56 | 39.92041 | 25.23613 | 22 ft | 17 kts | 134° |
| 2026-04-25 08:56 | 39.91950 | 25.23600 | 25 ft | 15 kts | 218° |
| 2026-04-25 08:56 | 39.91866 | 25.23498 | 25 ft | 18 kts | 224° |
| 2026-04-25 08:56 | 39.91767 | 25.23376 | 22 ft | 22 kts | 224° |
| 2026-04-25 08:57 | 39.91650 | 25.23234 | 22 ft | 24 kts | 221° |
| 2026-04-25 08:57 | 39.91516 | 25.23079 | 20 ft | 27 kts | 222° |
| 2026-04-25 08:57 | 39.91385 | 25.22919 | 21 ft | 25 kts | 223° |
| 2026-04-25 08:57 | 39.91256 | 25.22757 | 23 ft | 26 kts | 225° |
| 2026-04-25 08:58 | 39.91116 | 25.22586 | 27 ft | 29 kts | 223° |
| 2026-04-25 08:58 | 39.90965 | 25.22400 | 22 ft | 31 kts | 222° |
| 2026-04-25 08:58 | 39.90858 | 25.22273 | 22 ft | 7 kts | 216° |
| 2026-04-25 08:58 | 39.90803 | 25.22279 | 20 ft | 10 kts | 135° |
| 2026-04-25 08:59 | 39.90776 | 25.22345 | 20 ft | 6 kts | 117° |
| 2026-04-25 08:59 | 39.90767 | 25.22367 | 19 ft | 0 kts | 117° |
| 2026-04-25 08:59 | 39.90765 | 25.22370 | 19 ft | 0 kts | 117° |
| 2026-04-25 08:59 | 39.90761 | 25.22381 | 19 ft | 5 kts | 117° |
| 2026-04-25 09:00 | 39.90763 | 25.22483 | 21 ft | 17 kts | 53° |
| 2026-04-25 09:00 | 39.90889 | 25.22640 | 22 ft | 48 kts | 43° |
| 2026-04-25 09:00 | 39.91298 | 25.23137 | 20 ft | 109 kts | 43° |
| 2026-04-25 09:00 | 39.91974 | 25.23948 | 92 ft | 148 kts | 42° |
| 2026-04-25 09:01 | 39.92710 | 25.24833 | 651 ft | 145 kts | 41° |
| 2026-04-25 09:01 | 39.93446 | 25.25699 | 1328 ft | 139 kts | 42° |
| 2026-04-25 09:01 | 39.94158 | 25.26536 | 1907 ft | 140 kts | 43° |
| 2026-04-25 09:01 | 39.94926 | 25.27449 | 2320 ft | 159 kts | 44° |
| 2026-04-25 09:02 | 39.95831 | 25.28418 | 2792 ft | 179 kts | 31° |
| 2026-04-25 09:02 | 39.97110 | 25.28916 | 3215 ft | 209 kts | 4° |
| 2026-04-25 09:02 | 39.98557 | 25.28384 | 3986 ft | 227 kts | 328° |
| 2026-04-25 09:02 | 39.99587 | 25.26816 | 4980 ft | 234 kts | 295° |
| 2026-04-25 09:03 | 39.99845 | 25.24714 | 5887 ft | 243 kts | 263° |
| 2026-04-25 09:03 | 39.99238 | 25.22586 | 6491 ft | 263 kts | 232° |
| 2026-04-25 09:03 | 39.97820 | 25.20996 | 7048 ft | 279 kts | 202° |
| 2026-04-25 09:03 | 39.95923 | 25.20465 | 7861 ft | 281 kts | 174° |
| 2026-04-25 09:04 | 39.94062 | 25.21141 | 8805 ft | 280 kts | 147° |
| 2026-04-25 09:04 | 39.92549 | 25.22751 | 9742 ft | 284 kts | 133° |
| 2026-04-25 09:04 | 39.91119 | 25.24575 | 10516 ft | 295 kts | 135° |
| 2026-04-25 09:04 | 39.89479 | 25.26354 | 10880 ft | 319 kts | 141° |
| 2026-04-25 09:05 | 39.87577 | 25.28038 | 11302 ft | 339 kts | 146° |
| 2026-04-25 09:05 | 39.85533 | 25.29624 | 12100 ft | 344 kts | 148° |
| 2026-04-25 09:05 | 39.83430 | 25.31173 | 12748 ft | 350 kts | 149° |
| 2026-04-25 09:05 | 39.81297 | 25.32720 | 12985 ft | 352 kts | 149° |
| 2026-04-25 09:06 | 39.79158 | 25.34268 | 13046 ft | 352 kts | 149° |
| 2026-04-25 09:06 | 39.77021 | 25.35820 | 13050 ft | 351 kts | 149° |
| 2026-04-25 09:06 | 39.74893 | 25.37371 | 13052 ft | 351 kts | 149° |
| 2026-04-25 09:06 | 39.72764 | 25.38925 | 13049 ft | 351 kts | 149° |
| 2026-04-25 09:07 | 39.70640 | 25.40477 | 13047 ft | 350 kts | 149° |
| 2026-04-25 09:07 | 39.68516 | 25.42029 | 13051 ft | 350 kts | 149° |
| 2026-04-25 09:07 | 39.66421 | 25.43558 | 13044 ft | 350 kts | 149° |
| 2026-04-25 09:07 | 39.64269 | 25.45129 | 13047 ft | 350 kts | 149° |
| 2026-04-25 09:08 | 39.62176 | 25.46655 | 13045 ft | 349 kts | 149° |
| 2026-04-25 09:08 | 39.60030 | 25.48220 | 13046 ft | 349 kts | 149° |
| 2026-04-25 09:08 | 39.57918 | 25.49759 | 13046 ft | 348 kts | 148° |
| 2026-04-25 09:08 | 39.56013 | 25.51661 | 13045 ft | 346 kts | 134° |
| 2026-04-25 09:09 | 39.54342 | 25.53901 | 13041 ft | 346 kts | 131° |
| 2026-04-25 09:09 | 39.52717 | 25.56203 | 13043 ft | 345 kts | 131° |
| 2026-04-25 09:09 | 39.51113 | 25.58447 | 13047 ft | 345 kts | 131° |
| 2026-04-25 09:09 | 39.49457 | 25.60700 | 13036 ft | 345 kts | 132° |
| 2026-04-25 09:10 | 39.47782 | 25.62933 | 13036 ft | 345 kts | 133° |
| 2026-04-25 09:10 | 39.46104 | 25.65144 | 13038 ft | 345 kts | 133° |
| 2026-04-25 09:10 | 39.44422 | 25.67348 | 13032 ft | 344 kts | 133° |
| 2026-04-25 09:10 | 39.42739 | 25.69551 | 13033 ft | 344 kts | 133° |
| 2026-04-25 09:11 | 39.39376 | 25.73948 | 13035 ft | 344 kts | 133° |
| 2026-04-25 09:11 | 39.37693 | 25.76149 | 13032 ft | 344 kts | 133° |
| 2026-04-25 09:11 | 39.36010 | 25.78348 | 13029 ft | 345 kts | 133° |
| 2026-04-25 09:12 | 39.34323 | 25.80551 | 13027 ft | 344 kts | 133° |
| 2026-04-25 09:12 | 39.32636 | 25.82751 | 13030 ft | 345 kts | 133° |
| 2026-04-25 09:12 | 39.30946 | 25.84955 | 13031 ft | 345 kts | 133° |
| 2026-04-25 09:12 | 39.29260 | 25.87152 | 13032 ft | 345 kts | 133° |
| 2026-04-25 09:13 | 39.27572 | 25.89352 | 13031 ft | 345 kts | 134° |
| 2026-04-25 09:13 | 39.25881 | 25.91551 | 13027 ft | 345 kts | 134° |
| 2026-04-25 09:13 | 39.24188 | 25.93754 | 13035 ft | 345 kts | 134° |
| 2026-04-25 09:13 | 39.22499 | 25.95948 | 13027 ft | 345 kts | 134° |
| 2026-04-25 09:14 | 39.20807 | 25.98146 | 13029 ft | 345 kts | 134° |
| 2026-04-25 09:14 | 39.19688 | 25.99598 | 13026 ft | 345 kts | 134° |
| 2026-04-25 09:14 | 39.17993 | 26.01794 | 13028 ft | 345 kts | 134° |
| 2026-04-25 09:14 | 39.16301 | 26.03988 | 13018 ft | 345 kts | 134° |
| 2026-04-25 09:15 | 39.14614 | 26.06172 | 12773 ft | 344 kts | 134° |
| 2026-04-25 09:15 | 39.12918 | 26.08366 | 12136 ft | 348 kts | 134° |
| 2026-04-25 09:15 | 39.11192 | 26.10599 | 11289 ft | 355 kts | 134° |
| 2026-04-25 09:15 | 39.09445 | 26.12858 | 10643 ft | 356 kts | 134° |
| 2026-04-25 09:16 | 39.07723 | 26.15081 | 10392 ft | 344 kts | 134° |
| 2026-04-25 09:16 | 39.06072 | 26.17211 | 10243 ft | 329 kts | 135° |
| 2026-04-25 09:16 | 39.04487 | 26.19255 | 10117 ft | 316 kts | 135° |
| 2026-04-25 09:16 | 39.02971 | 26.21211 | 10002 ft | 302 kts | 135° |
| 2026-04-25 09:17 | 39.00082 | 26.24924 | 9452 ft | 289 kts | 135° |
| 2026-04-25 09:17 | 38.98754 | 26.26631 | 9067 ft | 287 kts | 135° |
| 2026-04-25 09:17 | 38.97357 | 26.28447 | 8659 ft | 284 kts | 131° |
| 2026-04-25 09:18 | 38.96148 | 26.30446 | 8244 ft | 283 kts | 125° |
| 2026-04-25 09:18 | 38.95003 | 26.32486 | 7846 ft | 280 kts | 125° |
| 2026-04-25 09:18 | 38.93862 | 26.34509 | 7467 ft | 279 kts | 125° |
| 2026-04-25 09:18 | 38.92725 | 26.36517 | 7078 ft | 277 kts | 125° |
| 2026-04-25 09:19 | 38.91600 | 26.38499 | 6849 ft | 269 kts | 126° |
| 2026-04-25 09:19 | 38.90521 | 26.40395 | 6743 ft | 257 kts | 125° |
| 2026-04-25 09:19 | 38.89493 | 26.42202 | 6650 ft | 245 kts | 125° |
| 2026-04-25 09:19 | 38.88643 | 26.44029 | 6555 ft | 233 kts | 111° |
| 2026-04-25 09:20 | 38.88276 | 26.45993 | 6461 ft | 221 kts | 96° |
| 2026-04-25 09:20 | 38.88112 | 26.47903 | 6362 ft | 209 kts | 96° |
| 2026-04-25 09:20 | 38.87941 | 26.49704 | 6201 ft | 200 kts | 96° |
| 2026-04-25 09:20 | 38.87969 | 26.51453 | 5913 ft | 199 kts | 79° |
| 2026-04-25 09:21 | 38.88308 | 26.53108 | 5624 ft | 199 kts | 75° |
| 2026-04-25 09:21 | 38.88671 | 26.54818 | 5339 ft | 198 kts | 76° |
| 2026-04-25 09:21 | 38.89022 | 26.56519 | 5080 ft | 197 kts | 75° |
| 2026-04-25 09:21 | 38.89603 | 26.58029 | 5016 ft | 182 kts | 53° |
| 2026-04-25 09:22 | 38.90446 | 26.59160 | 4848 ft | 171 kts | 47° |
| 2026-04-25 09:22 | 38.91272 | 26.60248 | 4488 ft | 171 kts | 48° |
| 2026-04-25 09:22 | 38.92092 | 26.61350 | 4132 ft | 170 kts | 49° |
| 2026-04-25 09:22 | 38.92903 | 26.62444 | 3811 ft | 168 kts | 49° |
| 2026-04-25 09:23 | 38.93705 | 26.63525 | 3468 ft | 167 kts | 49° |
| 2026-04-25 09:23 | 38.94526 | 26.64573 | 3133 ft | 167 kts | 38° |
| 2026-04-25 09:23 | 38.95635 | 26.64945 | 2764 ft | 173 kts | 358° |
| 2026-04-25 09:23 | 38.96812 | 26.64675 | 2445 ft | 173 kts | 350° |
| 2026-04-25 09:24 | 38.97974 | 26.64296 | 2114 ft | 171 kts | 348° |
| 2026-04-25 09:24 | 38.99116 | 26.63920 | 1834 ft | 166 kts | 348° |
| 2026-04-25 09:24 | 39.00194 | 26.63481 | 1446 ft | 161 kts | 343° |
| 2026-04-25 09:24 | 39.01206 | 26.63032 | 1220 ft | 144 kts | 343° |
| 2026-04-25 09:25 | 39.02112 | 26.62619 | 1015 ft | 135 kts | 341° |
| 2026-04-25 09:25 | 39.02946 | 26.62119 | 754 ft | 130 kts | 331° |
| 2026-04-25 09:25 | 39.03682 | 26.61508 | 513 ft | 123 kts | 328° |
| 2026-04-25 09:25 | 39.04403 | 26.60939 | 326 ft | 125 kts | 330° |
| 2026-04-25 09:26 | 39.05169 | 26.60331 | 147 ft | 131 kts | 330° |
| 2026-04-25 09:26 | 39.05922 | 26.59747 | 49 ft | 116 kts | 329° |
| 2026-04-25 09:26 | 39.06374 | 26.59390 | 55 ft | 53 kts | 330° |
| 2026-04-25 09:26 | 39.06655 | 26.59178 | 67 ft | 22 kts | 344° |
| 2026-04-25 09:27 | 39.06676 | 26.59153 | 61 ft | 1 kts | 219° |
| 2026-04-25 09:27 | 39.06625 | 26.59185 | 60 ft | 19 kts | 147° |
| 2026-04-25 09:27 | 39.06483 | 26.59304 | 60 ft | 27 kts | 148° |
| 2026-04-25 09:27 | 39.06310 | 26.59444 | 53 ft | 32 kts | 147° |
| 2026-04-25 09:28 | 39.06204 | 26.59591 | 55 ft | 15 kts | 117° |
| 2026-04-25 09:28 | 39.06169 | 26.59695 | 51 ft | 0 kts | 99° |
| 2026-04-25 09:28 | 39.06168 | 26.59699 | 50 ft | 0 kts | 99° |
| 2026-04-25 09:29 | 39.06168 | 26.59700 | 50 ft | 1 kts | 102° |
| 2026-04-25 09:30 | 39.06146 | 26.59740 | 51 ft | 10 kts | 138° |
| 2026-04-25 09:30 | 39.06129 | 26.59783 | 51 ft | 4 kts | 52° |
| 2026-04-25 09:30 | 39.06140 | 26.59796 | 51 ft | 2 kts | 40° |
| 2026-04-25 09:30 | 39.06140 | 26.59797 | 51 ft | 0 kts | 40° |